Time;durP1;ratioP1;P1;durP2;ratioP2;P2;SDS_P1;SDS_P2;PMS_P1;PMS_P2;Temp;Humidity;BMP_temperature;BMP_pressure;BME280_temperature;BME280_humidity;BME280_pressure;Samples;Min_cycle;Max_cycle;Signal;HPM_P1;HPM_P2
2021/12/14 00:29:32;;;;;;;;;;;;;;;1.05;100.00;101501.48;713932;1202;115328;-73
2021/12/14 00:44:34;;;;;;;104.55;33.15;;;;;;;1.16;100.00;101502.86;713803;1200;100901;-72
2021/12/14 00:59:37;;;;;;;100.97;33.00;;;;;;;1.13;100.00;101502.09;713845;1202;115157;-73
2021/12/14 01:14:50;;;;;;;119.35;35.90;;;;;;;1.12;100.00;101490.92;713825;1177;114153;-73
2021/12/14 01:29:54;;;;;;;110.83;33.80;;;;;;;1.12;100.00;101484.89;713761;1185;115066;-74
2021/12/14 01:44:59;;;;;;;116.80;35.07;;;;;;;1.23;100.00;101494.91;713897;1177;114224;-74
2021/12/14 02:00:07;;;;;;;125.43;36.10;;;;;;;1.22;100.00;101473.39;714089;1189;113663;-74
2021/12/14 02:15:14;;;;;;;117.40;34.68;;;;;;;1.19;100.00;101451.95;715265;1200;114767;-74
2021/12/14 02:30:24;;;;;;;127.78;35.90;;;;;;;1.20;100.00;101443.30;714007;1200;115121;-74
2021/12/14 02:45:27;;;;;;;123.03;37.77;;;;;;;1.44;100.00;101442.56;714174;1200;114370;-75
2021/12/14 03:00:34;;;;;;;122.15;38.15;;;;;;;1.46;100.00;101445.09;715334;1200;114852;-74
2021/12/14 03:15:48;;;;;;;135.35;38.73;;;;;;;1.40;100.00;101438.38;714730;1205;114383;-74
2021/12/14 03:31:11;;;;;;;125.05;40.05;;;;;;;1.43;100.00;101427.09;714114;1200;114734;-75
2021/12/14 03:46:14;;;;;;;122.60;36.33;;;;;;;1.53;100.00;101417.29;714073;1200;114448;-75
2021/12/14 04:01:28;;;;;;;122.93;35.80;;;;;;;1.70;100.00;101402.05;714225;1200;114373;-74
2021/12/14 04:16:30;;;;;;;119.00;33.28;;;;;;;1.78;100.00;101404.39;714207;1204;113875;-74
2021/12/14 04:31:35;;;;;;;123.28;35.10;;;;;;;1.65;100.00;101391.88;713978;1186;114640;-73
2021/12/14 05:02:10;;;;;;;114.35;34.75;;;;;;;1.76;100.00;101370.81;714067;1203;115018;-73
2021/12/14 05:17:28;;;;;;;120.63;34.03;;;;;;;1.71;100.00;101371.88;714649;1177;114427;-73
2021/12/14 05:32:30;;;;;;;109.15;32.80;;;;;;;1.83;100.00;101349.02;715008;1200;114807;-73
2021/12/14 05:47:39;;;;;;;127.15;36.80;;;;;;;1.86;100.00;101339.44;715214;1178;114651;-72
2021/12/14 06:02:41;;;;;;;98.23;35.30;;;;;;;1.91;100.00;101340.13;717907;1177;115057;-74
2021/12/14 06:17:44;;;;;;;83.63;32.03;;;;;;;2.03;100.00;101341.44;714301;1200;115315;-73
2021/12/14 06:32:52;;;;;;;102.20;35.27;;;;;;;2.08;100.00;101334.36;714004;1178;114645;-73
2021/12/14 06:48:04;;;;;;;92.55;31.88;;;;;;;2.13;100.00;101338.47;714240;1200;116261;-73
2021/12/14 07:03:06;;;;;;;144.77;52.47;;;;;;;2.11;100.00;101339.42;714259;1177;114180;-74
2021/12/14 07:18:10;;;;;;;91.55;38.80;;;;;;;2.23;100.00;101351.08;714255;1178;114730;-72
2021/12/14 07:33:19;;;;;;;92.72;36.23;;;;;;;2.29;100.00;101348.28;714013;1177;115524;-72
2021/12/14 07:48:41;;;;;;;100.23;34.13;;;;;;;2.35;100.00;101355.83;714107;1200;114457;-74
2021/12/14 08:03:44;;;;;;;96.13;34.45;;;;;;;2.42;100.00;101352.10;714887;1177;114875;-73
2021/12/14 08:18:47;;;;;;;99.97;34.97;;;;;;;2.47;100.00;101342.42;715593;1200;114258;-72
2021/12/14 08:33:56;;;;;;;104.27;35.53;;;;;;;2.59;100.00;101329.92;715718;1200;114895;-74
2021/12/14 08:49:02;;;;;;;108.07;38.33;;;;;;;2.63;100.00;101331.48;715755;1199;114186;-74
2021/12/14 09:04:34;;;;;;;98.95;35.88;;;;;;;2.72;100.00;101320.77;715565;1199;115778;-74
2021/12/14 09:20:02;;;;;;;91.30;33.40;;;;;;;2.74;100.00;101311.17;715240;1200;115331;-74
2021/12/14 09:35:17;;;;;;;117.47;40.80;;;;;;;2.78;100.00;101297.19;715512;1199;115435;-75
2021/12/14 09:50:31;;;;;;;95.90;35.63;;;;;;;2.94;100.00;101304.36;715789;1176;114371;-74
2021/12/14 10:05:41;;;;;;;125.50;47.40;;;;;;;2.95;100.00;101287.91;715754;1202;115535;-75
2021/12/14 10:21:15;;;;;;;123.90;44.98;;;;;;;2.93;100.00;101284.52;715285;1185;114191;-75
2021/12/14 10:36:30;;;;;;;126.90;43.35;;;;;;;3.04;100.00;101273.75;715264;1176;114308;-75
2021/12/14 10:51:37;;;;;;;126.33;45.60;;;;;;;3.09;100.00;101262.27;715894;1203;115246;-74
2021/12/14 11:06:45;;;;;;;111.57;46.93;;;;;;;3.22;100.00;101246.19;715883;1200;114297;-74
2021/12/14 11:21:47;;;;;;;91.10;33.85;;;;;;;3.27;100.00;101228.69;714914;1200;114704;-75
2021/12/14 11:37:03;;;;;;;86.55;32.13;;;;;;;3.25;100.00;101214.96;714999;1200;114146;-75
2021/12/14 11:52:06;;;;;;;93.50;34.70;;;;;;;3.36;100.00;101188.55;714810;1205;115123;-73
2021/12/14 12:22:47;;;;;;;84.40;32.05;;;;;;;3.46;100.00;101180.30;715084;1177;115014;-74
2021/12/14 12:37:49;;;;;;;97.73;36.90;;;;;;;3.59;100.00;101167.63;714952;1203;115978;-74
2021/12/14 12:52:52;;;;;;;89.63;34.28;;;;;;;3.74;100.00;101180.83;715105;1203;114947;-73
2021/12/14 13:08:18;;;;;;;89.43;37.85;;;;;;;3.79;100.00;101168.49;715292;1193;114163;-72
2021/12/14 13:23:36;;;;;;;74.20;28.10;;;;;;;3.77;100.00;101181.52;715367;1200;113994;-74
2021/12/14 13:38:38;;;;;;;79.77;32.73;;;;;;;3.73;100.00;101167.00;716003;1203;115924;-73
2021/12/14 13:53:43;;;;;;;100.73;48.30;;;;;;;3.77;100.00;101176.32;715537;1175;114137;-73
2021/12/14 14:08:53;;;;;;;73.73;32.03;;;;;;;3.79;100.00;101190.09;716023;1177;114414;-75
2021/12/14 14:24:22;;;;;;;95.43;41.50;;;;;;;3.89;100.00;101179.28;715739;1200;114627;-73
2021/12/14 14:39:25;;;;;;;71.28;34.58;;;;;;;3.88;100.00;101188.84;715418;1177;114150;-73
2021/12/14 14:54:33;;;;;;;74.30;29.50;;;;;;;3.92;100.00;101173.94;715762;1177;114010;-76
2021/12/14 15:09:35;;;;;;;79.53;35.98;;;;;;;3.91;100.00;101165.32;715432;1200;114179;-76
2021/12/14 15:24:47;;;;;;;79.03;29.75;;;;;;;3.88;100.00;101152.49;715271;1200;114724;-76
2021/12/14 15:39:49;;;;;;;70.73;29.35;;;;;;;3.87;100.00;101150.80;714736;1178;115292;-76
2021/12/14 15:54:54;;;;;;;80.87;34.03;;;;;;;3.87;100.00;101173.30;714984;1188;114241;-75
2021/12/14 16:10:08;;;;;;;105.50;39.07;;;;;;;3.85;100.00;101183.77;714752;1199;114613;-75
2021/12/14 16:25:19;;;;;;;81.85;34.33;;;;;;;3.92;100.00;101186.92;715227;1204;114586;-74
2021/12/14 16:40:22;;;;;;;87.15;35.58;;;;;;;3.97;100.00;101158.99;715195;1199;114071;-74
2021/12/14 16:55:29;;;;;;;139.45;52.20;;;;;;;4.01;100.00;101168.32;715104;1200;114544;-74
2021/12/14 17:10:35;;;;;;;158.60;59.73;;;;;;;4.02;100.00;101164.81;715217;1202;114895;-74
2021/12/14 17:25:38;;;;;;;111.15;51.90;;;;;;;4.06;100.00;101183.70;715062;1178;114315;-75
2021/12/14 17:40:42;;;;;;;102.03;40.77;;;;;;;4.14;100.00;101190.23;714855;1200;114956;-75
2021/12/14 17:55:51;;;;;;;237.63;117.48;;;;;;;4.19;100.00;101199.56;715314;1202;116028;-70
2021/12/14 18:11:12;;;;;;;98.10;41.93;;;;;;;4.23;100.00;101194.14;715570;1177;115380;-70
2021/12/14 18:26:19;;;;;;;104.60;39.40;;;;;;;4.35;100.00;101200.52;714980;1200;115287;-70
2021/12/14 18:41:24;;;;;;;;;;;;;;;4.42;100.00;101219.25;715573;1200;115269;-70
2021/12/14 18:56:32;;;;;;;96.43;36.95;;;;;;;4.43;100.00;101223.54;714807;1200;100100;-71
2021/12/14 19:11:37;;;;;;;75.05;31.73;;;;;;;4.46;100.00;101211.25;715127;1200;115512;-71
2021/12/14 19:26:44;;;;;;;73.70;31.47;;;;;;;4.53;100.00;101242.12;715860;1176;114587;-71
2021/12/14 19:41:49;;;;;;;76.67;32.70;;;;;;;4.55;100.00;101232.51;715392;1200;115328;-71
2021/12/14 19:57:07;;;;;;;68.27;28.40;;;;;;;4.54;100.00;101223.88;714892;1200;116041;-74
2021/12/14 20:12:12;;;;;;;69.23;29.85;;;;;;;4.59;100.00;101236.64;715053;1200;114351;-70
2021/12/14 20:27:24;;;;;;;154.30;54.98;;;;;;;4.62;100.00;101252.94;715870;1200;114075;-71
2021/12/14 20:42:48;;;;;;;97.40;39.45;;;;;;;4.71;100.00;101262.06;722873;1199;114886;-71
2021/12/14 20:57:55;;;;;;;95.90;34.50;;;;;;;4.79;100.00;101270.33;714079;1176;113982;-71
2021/12/14 21:12:58;;;;;;;83.25;33.70;;;;;;;4.92;100.00;101272.33;714208;1177;114523;-70
2021/12/14 21:28:08;;;;;;;70.60;28.20;;;;;;;4.99;100.00;101261.55;714022;1200;114165;-71
2021/12/14 21:43:20;;;;;;;77.55;29.80;;;;;;;5.08;100.00;101294.09;713980;1177;114208;-71
2021/12/14 21:58:23;;;;;;;84.77;31.03;;;;;;;5.17;100.00;101321.39;713905;1184;113894;-72
2021/12/14 22:13:29;;;;;;;71.23;25.70;;;;;;;5.04;100.00;101323.77;714179;1176;114687;-72
2021/12/14 22:28:31;;;;;;;64.05;25.05;;;;;;;5.09;100.00;101329.56;714337;1177;114056;-71
2021/12/14 22:58:59;;;;;;;76.05;28.25;;;;;;;5.05;100.00;101341.03;714036;1203;113958;-72
2021/12/14 23:14:30;;;;;;;64.78;23.58;;;;;;;5.13;100.00;101343.27;714248;1204;114307;-71
2021/12/14 23:29:33;;;;;;;64.60;22.13;;;;;;;5.07;100.00;101339.22;714361;1202;114686;-72
2021/12/14 23:44:36;;;;;;;60.83;23.53;;;;;;;5.01;100.00;101321.30;714402;1200;114087;-72
2021/12/14 23:59:39;;;;;;;53.48;21.63;;;;;;;4.93;100.00;101354.63;713897;1176;113861;-71
